Latest Weather Observations for Gove Airport

IDD60801

Issued at 9:31 am CST Monday 25 July 2016 (issued every 30 minutes, with the page automatically refreshed every 10 minutes)

About weather observations | Map of weather stations | Latest weather observations for NT | Other Formats
Station Details ID: 014508 Name: GOVE AIRPORT Lat: -12.27 Lon: 136.82 Height: 51.6 m
Data from the previous 72 hours. | See also: Recent months at Gove Airport
Date/Time
CST
Temp
°C
App
Temp
°C
Dew
Point
°C
Rel
Hum
%
Delta-T
°C
Wind Press
QNH
hPa
Press
MSL
hPa
Rain since
9am
mm
Dir  Spd
km/h
Gust
km/h
Spd
kts
Gust
kts
25/09:00am 27.0 27.7 21.6 72 3.6 SE 20 30 11 16 1013.9 1013.6 0.0
25/08:30am 26.0 28.7 22.8 82 2.2 SE 13 19 7 10 1013.6 1013.3 0.0
25/08:00am 24.7 27.8 22.9 90 1.2 SE 11 15 6 8 1013.5 1013.2 0.0
25/07:30am 23.5 26.4 22.5 94 0.7 SE 11 13 6 7 1013.2 1012.9 0.0
25/07:00am 22.6 25.1 21.8 95 0.5 SE 11 15 6 8 1013.0 1012.7 0.0
25/06:30am 22.3 24.7 21.5 95 0.5 SE 11 15 6 8 1012.7 1012.4 0.0
25/06:00am 22.0 24.3 21.4 96 0.4 SSE 11 13 6 7 1012.5 1012.2 0.0
25/05:30am 21.8 24.0 21.2 96 0.4 SSE 11 13 6 7 1012.1 1011.8 0.0
25/05:00am 20.4 22.8 20.1 98 0.2 SSE 7 11 4 6 1011.7 1011.4 0.0
25/04:30am 21.1 23.9 20.5 96 0.4 SE 6 9 3 5 1011.5 1011.2 0.0
25/04:00am 20.5 23.2 20.2 98 0.2 SSE 6 7 3 4 1011.5 1011.2 0.0
25/03:30am 21.1 24.1 20.8 98 0.2 S 6 9 3 5 1011.6 1011.3 0.0
25/03:00am 21.1 23.9 20.8 98 0.2 S 7 9 4 5 1011.8 1011.5 0.0
25/02:30am 21.3 24.1 20.8 97 0.3 S 7 9 4 5 1012.2 1011.9 0.0
25/02:00am 21.3 24.1 20.8 97 0.3 S 7 9 4 5 1012.5 1012.2 0.0
25/01:30am 22.2 24.9 21.4 95 0.5 SSE 9 11 5 6 1012.8 1012.5 0.0
25/01:00am 22.3 25.1 21.5 95 0.5 SSE 9 11 5 6 1012.9 1012.6 0.0
25/12:30am 21.9 25.1 21.3 96 0.4 SSE 6 7 3 4 1013.1 1012.8 0.0
25/12:00am 22.2 25.4 21.6 96 0.4 SSE 7 9 4 5 1013.1 1012.8 0.0
 
Date/Time
CST
Temp
°C
App
Temp
°C
Dew
Point
°C
Rel
Hum
%
Delta-T
°C
Wind Press
QNH
hPa
Press
MSL
hPa
Rain since
9am
mm
Dir  Spd
km/h
Gust
km/h
Spd
kts
Gust
kts
24/11:30pm 22.5 26.6 21.6 95 0.6 SSE 2 6 1 3 1013.2 1012.9 0.0
24/11:00pm 22.8 26.2 22.0 95 0.5 S 7 9 4 5 1013.3 1013.0 0.0
24/10:30pm 23.4 26.9 22.2 93 0.8 SSE 7 9 4 5 1013.4 1013.1 0.0
24/10:00pm 23.9 27.6 22.6 92 0.9 SSE 7 11 4 6 1013.4 1013.1 0.0
24/09:30pm 24.3 27.7 22.7 91 1.1 SSE 9 13 5 7 1013.2 1012.9 0.0
24/09:00pm 24.8 27.4 22.7 88 1.4 SE 13 17 7 9 1013.2 1012.9 0.0
24/08:40pm 25.0 27.7 22.9 88 1.4 SE 13 19 7 10 1013.3 1013.0 0.0
24/08:30pm 25.0 27.9 23.1 89 1.3 SSE 13 19 7 10 1013.1 1012.8 0.0
24/08:15pm 25.1 28.0 23.2 89 1.3 SE 13 20 7 11 1013.0 1012.7 0.0
24/08:00pm 24.8 28.1 23.2 91 1.1 SE 11 17 6 9 1012.8 1012.5 0.0
24/07:30pm 24.8 28.0 23.0 90 1.2 SSE 11 15 6 8 1012.5 1012.2 0.0
24/07:25pm 24.8 27.6 23.0 90 1.2 SSE 13 17 7 9 1012.5 1012.2 0.0
24/07:00pm 25.2 27.9 22.8 86 1.6 SSE 13 17 7 9 1012.4 1012.1 0.0
24/06:40pm 25.4 27.8 22.9 86 1.7 SSE 15 22 8 12 1012.3 1012.0 0.0
24/06:30pm 25.5 27.4 22.8 85 1.8 SSE 17 28 9 15 1012.2 1011.9 0.0
24/06:00pm 25.9 27.3 22.6 82 2.2 SSE 19 26 10 14 1011.9 1011.6 0.0
24/05:30pm 26.8 28.1 21.6 73 3.5 SSE 17 24 9 13 1011.7 1011.4 0.0
24/05:00pm 27.5 28.5 21.7 70 3.9 SSE 19 26 10 14 1011.5 1011.2 0.0
24/04:30pm 28.0 28.6 21.4 67 4.4 SE 20 32 11 17 1011.4 1011.1 0.0
24/04:00pm 28.5 28.9 21.0 64 5.0 SE 20 26 11 14 1011.2 1010.9 0.0
24/03:30pm 28.5 28.0 20.7 62 5.2 ESE 24 35 13 19 1011.4 1011.1 0.0
24/03:00pm 28.6 28.6 20.9 63 5.1 SE 22 32 12 17 1011.6 1011.3 0.0
24/02:30pm 29.8 29.3 20.8 58 6.0 ESE 24 30 13 16 1011.8 1011.5 0.0
24/02:00pm 29.4 29.7 21.5 62 5.3 SE 22 32 12 17 1012.3 1012.0 0.0
24/01:30pm 27.5 28.7 22.5 74 3.4 SE 20 26 11 14 1012.8 1012.5 0.0
24/01:00pm 27.2 28.4 22.5 75 3.2 SE 20 30 11 16 1013.2 1012.9 0.0
24/12:30pm 28.1 29.0 22.0 69 4.1 ESE 20 28 11 15 1013.4 1013.1 0.0
24/12:00pm 29.0 29.8 21.7 64 4.9 SE 20 32 11 17 1013.7 1013.4 0.0
24/11:30am 28.3 29.1 21.7 67 4.4 ESE 20 26 11 14 1013.9 1013.6 0.0
24/11:00am 27.8 28.9 22.0 70 3.9 SE 19 26 10 14 1014.0 1013.7 0.0
24/10:30am 28.6 29.8 22.2 68 4.3 ESE 19 26 10 14 1014.1 1013.8 0.0
24/10:00am 27.5 27.7 21.3 69 4.1 ESE 22 30 12 16 1014.2 1013.9 0.0
24/09:30am 27.7 27.4 21.1 67 4.4 ESE 24 32 13 17 1014.0 1013.7 0.0
24/09:25am 27.6 27.9 21.6 70 4.0 ESE 22 30 12 16 1014.0 1013.7 0.0
24/09:00am 27.1 29.6 23.1 79 2.7 SE 15 20 8 11 1013.8 1013.5 0.0
24/08:50am 26.4 29.4 23.3 83 2.1 SE 13 20 7 11 1013.8 1013.5 0.0
24/08:30am 25.3 29.1 23.5 90 1.2 SE 9 13 5 7 1013.6 1013.3 0.0
24/08:00am 23.4 27.4 22.8 96 0.4 SSE 6 7 3 4 1013.4 1013.1 0.0
24/07:30am 21.7 25.4 21.4 98 0.2 SSE 4 6 2 3 1013.1 1012.8 0.0
24/07:00am 20.5 23.4 19.9 96 0.4 SE 4 6 2 3 1012.5 1012.2 0.0
24/06:30am 20.5 24.2 20.0 97 0.3 CALM 0 0 0 0 1012.2 1011.9 0.0
24/06:00am 20.9 24.8 20.4 97 0.3 CALM 0 0 0 0 1012.1 1011.8 0.0
24/05:30am 20.6 24.2 19.8 95 0.5 CALM 0 0 0 0 1011.7 1011.4 0.0
24/05:00am 20.3 23.8 19.5 95 0.5 CALM 0 0 0 0 1011.3 1011.0 0.0
24/04:30am 20.5 24.2 20.0 97 0.3 CALM 0 0 0 0 1011.2 1010.9 0.0
24/04:00am 20.7 24.5 20.1 96 0.4 CALM 0 0 0 0 1011.1 1010.8 0.0
24/03:30am 20.8 24.7 20.3 97 0.3 CALM 0 0 0 0 1011.1 1010.8 0.0
24/03:00am 20.9 24.7 20.1 95 0.5 CALM 0 0 0 0 1011.2 1010.9 0.0
24/02:30am 20.8 24.2 20.2 96 0.4 S 2 7 1 4 1011.3 1011.0 0.0
24/02:00am 20.9 24.7 20.1 95 0.5 CALM 0 0 0 0 1011.6 1011.3 0.0
24/01:30am 21.4 25.5 20.8 96 0.4 CALM 0 0 0 0 1011.8 1011.5 0.0
24/01:00am 21.4 25.4 20.6 95 0.5 CALM 0 0 0 0 1011.7 1011.4 0.0
24/12:30am 21.8 26.0 20.9 95 0.6 CALM 0 0 0 0 1011.9 1011.6 0.0
24/12:00am 22.7 26.0 21.9 95 0.5 SSE 7 9 4 5 1012.1 1011.8 0.0
 
Date/Time
CST
Temp
°C
App
Temp
°C
Dew
Point
°C
Rel
Hum
%
Delta-T
°C
Wind Press
QNH
hPa
Press
MSL
hPa
Rain since
9am
mm
Dir  Spd
km/h
Gust
km/h
Spd
kts
Gust
kts
23/11:30pm 22.8 25.8 22.0 95 0.5 SSE 9 11 5 6 1012.0 1011.7 0.0
23/11:00pm 22.7 25.5 21.6 93 0.7 SSE 9 11 5 6 1012.3 1012.0 0.0
23/10:30pm 23.0 26.6 22.1 95 0.6 SE 6 7 3 4 1012.4 1012.1 0.0
23/10:00pm 23.2 26.7 22.2 94 0.7 SE 7 9 4 5 1012.4 1012.1 0.0
23/09:30pm 23.4 26.9 22.2 93 0.8 SE 7 7 4 4 1012.3 1012.0 0.0
23/09:00pm 23.7 26.8 22.2 91 1.0 SE 9 9 5 5 1012.2 1011.9 0.0
23/08:30pm 23.9 27.1 22.4 91 1.0 SSE 9 11 5 6 1012.0 1011.7 0.0
23/08:00pm 24.2 27.4 22.4 90 1.2 SE 9 11 5 6 1011.9 1011.6 0.0
23/07:30pm 24.6 28.3 22.5 88 1.4 SE 7 9 4 5 1011.6 1011.3 0.0
23/07:00pm 25.0 28.3 22.5 86 1.7 SE 9 13 5 7 1011.2 1010.9 0.0
23/06:30pm 25.6 28.4 22.3 82 2.2 SE 11 15 6 8 1011.0 1010.7 0.0
23/06:00pm 26.4 28.0 22.2 78 2.8 SE 17 22 9 12 1010.9 1010.6 0.0
23/05:30pm 27.2 29.5 22.0 73 3.5 SE 13 19 7 10 1010.6 1010.3 0.0
23/05:00pm 27.4 29.4 22.2 73 3.5 SE 15 20 8 11 1010.2 1009.9 0.0
23/04:30pm 28.1 28.8 22.2 70 4.0 ESE 22 28 12 15 1010.1 1009.8 0.0
23/04:00pm 28.6 29.1 21.9 67 4.5 SE 22 32 12 17 1010.2 1009.9 0.0
23/03:30pm 28.4 29.3 22.7 71 3.9 SE 22 32 12 17 1010.4 1010.1 0.0
23/03:00pm 28.8 29.5 22.2 67 4.5 SE 22 35 12 19 1010.5 1010.2 0.0
23/02:30pm 28.1 28.4 22.2 70 4.0 SE 24 32 13 17 1010.6 1010.3 0.0
23/02:00pm 28.9 29.2 22.3 67 4.5 ESE 24 32 13 17 1010.9 1010.6 0.0
23/01:30pm 28.8 28.7 22.2 67 4.5 ESE 26 35 14 19 1011.3 1011.0 0.0
23/01:00pm 29.2 28.0 21.6 63 5.1 ESE 30 39 16 21 1011.7 1011.4 0.0
23/12:30pm 29.3 29.2 21.4 62 5.3 ESE 24 35 13 19 1011.8 1011.5 0.0
23/12:00pm 30.0 29.9 21.4 60 5.8 ESE 24 35 13 19 1012.1 1011.8 0.0
23/11:30am 30.1 30.0 20.8 57 6.2 ESE 22 33 12 18 1012.3 1012.0 0.0
23/11:00am 29.7 29.0 20.3 57 6.2 E 24 32 13 17 1012.6 1012.3 0.0
23/10:30am 29.7 29.8 20.3 57 6.2 ESE 20 30 11 16 1012.6 1012.3 0.0
23/10:00am 28.9 29.0 20.4 60 5.6 ESE 20 26 11 14 1012.9 1012.6 0.0
23/09:30am 28.5 28.4 20.8 63 5.1 ESE 22 30 12 16 1013.1 1012.8 0.0
23/09:00am 27.6 28.9 22.4 73 3.5 ESE 19 26 10 14 1013.2 1012.9 0.0
23/08:30am 26.6 29.5 23.1 81 2.4 ESE 13 19 7 10 1013.0 1012.7 0.0
23/08:00am 25.0 29.1 24.0 94 0.7 SE 9 11 5 6 1012.6 1012.3 0.0
23/07:30am 23.8 27.2 23.4 98 0.3 SSE 11 13 6 7 1012.3 1012.0 0.0
23/07:00am 22.5 25.5 22.0 97 0.3 SE 9 9 5 5 1012.3 1012.0 0.0
23/06:30am 22.2 25.4 21.7 97 0.3 SSE 7 9 4 5 1012.3 1012.0 0.0
23/06:00am 22.0 26.1 21.5 97 0.3 SE 2 9 1 5 1012.0 1011.7 0.0
23/05:30am 22.1 26.6 21.6 97 0.3 CALM 0 0 0 0 1011.7 1011.4 0.0
23/05:26am 22.0 26.4 21.4 96 0.4 CALM 0 0 0 0 1011.6 1011.3 0.0
23/05:07am 22.0 26.5 21.5 97 0.3 CALM 0 0 0 0 1011.4 1011.1 0.0
23/05:00am 22.2 26.7 21.6 96 0.4 CALM 0 0 0 0 1011.3 1011.0 0.0
23/04:30am 22.3 26.8 21.5 95 0.5 CALM 0 0 0 0 1011.3 1011.0 0.0
23/04:00am 23.1 27.0 22.5 96 0.4 SE 6 7 3 4 1011.4 1011.1 0.0
23/03:30am 23.1 26.8 22.5 96 0.4 SSE 7 9 4 5 1011.3 1011.0 0.0
23/03:00am 22.7 26.2 22.1 96 0.4 SE 7 7 4 4 1011.3 1011.0 0.0
23/02:30am 23.1 26.8 22.5 96 0.4 SSE 7 9 4 5 1011.5 1011.2 0.0
23/02:00am 23.1 26.7 22.4 96 0.5 SE 7 7 4 4 1011.6 1011.3 0.0
23/01:30am 23.3 27.0 22.6 96 0.5 SE 7 9 4 5 1011.8 1011.5 0.0
23/01:00am 23.7 27.5 22.7 94 0.7 SSE 7 9 4 5 1011.9 1011.6 0.0
23/12:30am 23.9 27.2 22.6 92 0.9 SE 9 11 5 6 1012.1 1011.8 0.0
23/12:00am 24.3 27.3 22.7 91 1.1 SSE 11 15 6 8 1012.0 1011.7 0.0
 
Date/Time
CST
Temp
°C
App
Temp
°C
Dew
Point
°C
Rel
Hum
%
Delta-T
°C
Wind Press
QNH
hPa
Press
MSL
hPa
Rain since
9am
mm
Dir  Spd
km/h
Gust
km/h
Spd
kts
Gust
kts
22/11:30pm 24.4 27.5 22.8 91 1.1 SSE 11 20 6 11 1012.0 1011.7 0.0
22/11:00pm 24.4 27.4 22.6 90 1.2 SSE 11 17 6 9 1012.2 1011.9 0.0
22/10:30pm 24.6 27.2 22.7 89 1.3 SE 13 17 7 9 1012.4 1012.1 0.0
22/10:00pm 24.5 27.5 22.6 89 1.3 SE 11 17 6 9 1012.4 1012.1 0.0
22/09:30pm 24.5 27.5 22.6 89 1.3 SSE 11 15 6 8 1012.4 1012.1 0.0
22/09:00pm 24.7 27.3 22.6 88 1.4 SSE 13 17 7 9 1012.3 1012.0 0.0
22/08:30pm 24.9 27.8 22.5 86 1.6 SE 11 15 6 8 1012.1 1011.8 0.0
22/08:00pm 25.0 28.0 22.6 86 1.6 SE 11 17 6 9 1011.9 1011.6 0.0
22/07:30pm 25.1 28.1 22.6 86 1.7 SSE 11 15 6 8 1011.7 1011.4 0.0
22/07:00pm 25.4 28.4 22.6 84 1.9 SE 11 17 6 9 1011.6 1011.3 0.0
22/06:30pm 25.7 28.2 22.4 82 2.2 SE 13 20 7 11 1011.4 1011.1 0.0
22/06:00pm 26.4 27.6 22.2 78 2.8 SE 19 26 10 14 1011.3 1011.0 0.0
22/05:30pm 27.0 28.0 22.1 74 3.3 ESE 20 30 11 16 1011.2 1010.9 0.0
22/05:00pm 27.2 27.6 21.8 72 3.6 ESE 22 30 12 16 1011.1 1010.8 0.0
22/04:30pm 28.9 28.8 21.4 64 5.0 ESE 24 35 13 19 1010.9 1010.6 0.0
22/04:00pm 28.8 29.4 21.3 64 5.0 ESE 20 30 11 16 1010.8 1010.5 0.0
22/03:30pm 29.6 29.0 20.4 57 6.1 ESE 24 35 13 19 1010.8 1010.5 0.0
22/03:00pm 29.6 28.3 20.7 58 5.9 E 28 33 15 18 1011.0 1010.7 0.0
22/02:30pm 29.0 28.5 20.7 61 5.5 ESE 24 33 13 18 1011.2 1010.9 0.0
22/02:00pm 29.2 28.9 21.1 61 5.4 ESE 24 33 13 18 1011.4 1011.1 0.0
22/01:30pm 29.4 28.4 21.3 61 5.4 E 28 33 15 18 1011.9 1011.6 0.0
22/01:00pm 29.0 29.0 21.6 64 5.0 ESE 24 32 13 17 1012.2 1011.9 0.0
22/12:30pm 29.5 28.8 21.1 60 5.6 ESE 26 35 14 19 1012.6 1012.3 0.0
22/12:00pm 29.7 29.2 21.5 61 5.5 ESE 26 35 14 19 1012.9 1012.6 0.0
22/11:30am 29.4 29.0 21.0 60 5.6 ESE 24 37 13 20 1013.2 1012.9 0.0
22/11:00am 28.3 28.2 22.2 69 4.1 ESE 26 32 14 17 1013.7 1013.4 0.0
22/10:30am 28.4 28.2 22.0 68 4.3 ESE 26 33 14 18 1014.0 1013.7 0.0
22/10:00am 27.9 28.6 22.3 71 3.8 ESE 22 30 12 16 1014.1 1013.8 0.0

Other Formats:

Comma delimited format used in spreadsheet applications
http://www.bom.gov.au/fwo/IDD60801/IDD60801.94150.axf

JavaScript Object Notation format (JSON) in row-major order
http://www.bom.gov.au/fwo/IDD60801/IDD60801.94150.json